createdAt,value
2019-05-01T00:02:07.680Z,100.00
2019-05-01T00:07:08.922Z,100.00
2019-05-01T00:12:04.671Z,100.00
2019-05-01T00:17:00.703Z,100.00
2019-05-01T00:21:56.413Z,99.95
2019-05-01T00:26:52.114Z,100.00
2019-05-01T00:31:47.841Z,99.88
2019-05-01T00:36:43.672Z,100.00
2019-05-01T00:41:39.380Z,99.42
2019-05-01T00:46:35.139Z,99.34
2019-05-01T00:51:30.899Z,100.00
2019-05-01T00:56:51.836Z,100.00
2019-05-01T01:02:15.766Z,100.00
2019-05-01T01:07:11.572Z,100.00
2019-05-01T01:12:07.425Z,100.00
2019-05-01T01:17:03.165Z,100.00
2019-05-01T01:21:58.889Z,100.00
2019-05-01T01:26:54.618Z,100.00
2019-05-01T01:31:51.401Z,100.00
2019-05-01T01:36:47.127Z,100.00
2019-05-01T01:41:43.068Z,100.00
2019-05-01T01:46:39.964Z,100.00
2019-05-01T01:51:35.805Z,100.00
2019-05-01T01:56:31.672Z,100.00
2019-05-01T02:01:44.760Z,100.00
2019-05-01T02:06:40.486Z,100.00
2019-05-01T02:11:36.302Z,100.00
2019-05-01T02:16:32.056Z,100.00
2019-05-01T02:21:27.867Z,100.00
2019-05-01T02:26:26.074Z,100.00
2019-05-01T02:31:33.562Z,100.00
2019-05-01T02:36:32.072Z,100.00
2019-05-01T02:41:40.952Z,100.00
2019-05-01T02:46:37.858Z,100.00
2019-05-01T02:51:34.306Z,100.00
2019-05-01T02:56:36.390Z,100.00
2019-05-01T03:01:46.640Z,100.00
2019-05-01T03:06:32.913Z,100.00
2019-05-01T03:11:30.786Z,100.00
2019-05-01T03:16:27.404Z,100.00
2019-05-01T03:21:35.643Z,100.00
2019-05-01T03:26:32.292Z,100.00
2019-05-01T03:31:28.311Z,100.00
2019-05-01T03:36:24.311Z,100.00
2019-05-01T03:41:22.545Z,100.00
2019-05-01T03:46:18.916Z,100.00
2019-05-01T03:51:14.779Z,100.00
2019-05-01T03:56:10.702Z,100.00
2019-05-01T04:01:16.177Z,100.00
2019-05-01T04:06:12.599Z,100.00
2019-05-01T04:11:08.750Z,100.00
2019-05-01T04:16:04.679Z,100.00
2019-05-01T04:21:01.524Z,100.00
2019-05-01T04:25:57.323Z,100.00
2019-05-01T04:31:03.881Z,100.00
2019-05-01T04:36:04.924Z,100.00
2019-05-01T04:41:02.224Z,100.00
2019-05-01T04:45:58.679Z,100.00
2019-05-01T04:50:54.808Z,100.00
2019-05-01T04:55:50.745Z,100.00
2019-05-01T05:00:46.588Z,100.00
2019-05-01T05:05:42.314Z,100.00
2019-05-01T05:10:38.742Z,100.00
2019-05-01T05:15:50.481Z,100.00
2019-05-01T05:20:46.240Z,100.00
2019-05-01T05:25:42.630Z,100.00
2019-05-01T05:30:44.568Z,100.00
2019-05-01T05:35:43.901Z,100.00
2019-05-01T05:40:42.272Z,100.00
2019-05-01T05:45:38.328Z,100.00
2019-05-01T05:50:45.371Z,100.00
2019-05-01T05:55:48.286Z,100.00
2019-05-01T06:01:08.854Z,100.00
2019-05-01T06:06:35.901Z,100.00
2019-05-01T06:11:54.522Z,99.66
2019-05-01T06:17:02.507Z,100.00
2019-05-01T06:22:30.430Z,100.00
2019-05-01T06:27:27.043Z,98.74
2019-05-01T06:32:22.859Z,98.81
2019-05-01T06:37:20.786Z,99.84
2019-05-01T06:42:17.936Z,99.87
2019-05-01T06:47:38.098Z,98.46
2019-05-01T06:52:36.170Z,97.55
2019-05-01T06:57:32.792Z,98.73
2019-05-01T07:02:34.979Z,99.38
2019-05-01T07:07:28.268Z,94.54
2019-05-01T07:12:30.024Z,93.65
2019-05-01T07:17:26.145Z,94.50
2019-05-01T07:22:22.531Z,95.02
2019-05-01T07:27:18.862Z,89.51
2019-05-01T07:32:15.892Z,87.74
2019-05-01T07:37:12.017Z,82.30
2019-05-01T07:42:28.713Z,79.56
2019-05-01T07:47:34.704Z,77.35
2019-05-01T07:52:31.072Z,73.42
2019-05-01T07:57:27.606Z,71.27
2019-05-01T08:02:25.767Z,69.88
2019-05-01T08:07:21.149Z,70.97
2019-05-01T08:12:18.844Z,70.83
2019-05-01T08:17:18.090Z,69.44
2019-05-01T08:22:17.227Z,65.37
2019-05-01T08:27:43.870Z,68.16
2019-05-01T08:46:37.149Z,65.50
2019-05-01T08:51:34.902Z,61.95
2019-05-01T08:56:31.994Z,59.86
2019-05-01T09:01:27.760Z,58.21
2019-05-01T14:25:13.336Z,40.32
2019-05-01T14:30:11.195Z,36.52
2019-05-01T14:35:07.619Z,41.20
2019-05-01T14:41:33.168Z,44.67
2019-05-01T15:03:48.648Z,39.16
2019-05-01T15:08:44.427Z,38.90
2019-05-01T15:13:50.265Z,41.48
2019-05-01T15:19:24.456Z,39.44
2019-05-01T15:24:20.299Z,38.28
2019-05-01T15:29:16.136Z,38.55
2019-05-01T15:34:12.041Z,32.79
2019-05-01T15:39:14.688Z,37.81
2019-05-01T15:44:26.125Z,37.16
2019-05-01T15:49:22.031Z,36.40
2019-05-01T15:54:17.740Z,34.40
2019-05-01T15:59:13.506Z,37.05
2019-05-01T16:04:09.350Z,35.21
2019-05-01T16:09:06.395Z,35.31
2019-05-01T16:14:02.483Z,34.48
2019-05-01T16:18:58.363Z,32.79
2019-05-01T16:23:54.209Z,34.33
2019-05-01T16:28:49.983Z,34.12
2019-05-01T16:33:45.836Z,33.06
2019-05-01T16:38:54.836Z,32.27
2019-05-01T16:44:05.944Z,35.84
2019-05-01T16:49:01.907Z,33.81
2019-05-01T16:53:57.979Z,35.74
2019-05-01T16:59:14.134Z,35.49
2019-05-01T17:04:20.524Z,39.38
2019-05-01T17:09:49.733Z,36.21
2019-05-01T17:15:02.812Z,38.83
2019-05-01T17:20:00.269Z,37.68
2019-05-01T17:24:56.765Z,40.52
2019-05-01T17:30:06.523Z,41.80
2019-05-01T17:35:06.674Z,39.37
2019-05-01T17:40:03.540Z,39.14
2019-05-01T17:45:38.891Z,41.38
2019-05-01T17:50:36.151Z,42.94
2019-05-01T18:02:11.773Z,43.54
2019-05-01T18:07:39.826Z,46.07
2019-05-01T18:12:46.907Z,47.88
2019-05-01T18:17:42.723Z,47.75
2019-05-01T18:22:56.494Z,52.09
2019-05-01T18:28:03.710Z,54.43
2019-05-01T18:32:59.623Z,54.98
2019-05-01T18:38:01.040Z,54.62
2019-05-01T18:42:56.805Z,55.41
2019-05-01T18:47:52.753Z,56.55
2019-05-01T18:52:48.569Z,58.54
2019-05-01T18:58:32.659Z,58.61
2019-05-01T19:04:34.635Z,58.74
2019-05-01T19:10:30.385Z,58.21
2019-05-01T19:15:35.784Z,58.06
